createdAt,value
2023-03-02T00:01:10.451Z,-1.44
2023-03-02T00:03:42.021Z,-1.21
2023-03-02T00:06:10.593Z,-1.17
2023-03-02T00:08:39.470Z,-1.32
2023-03-02T00:11:07.274Z,-1.25
2023-03-02T00:13:36.831Z,-1.23
2023-03-02T00:16:05.137Z,-1.35
2023-03-02T00:18:32.978Z,-1.30
2023-03-02T00:21:02.157Z,-1.42
2023-03-02T00:23:30.030Z,-1.54
2023-03-02T00:25:57.837Z,-1.39
2023-03-02T00:28:29.590Z,-1.15
2023-03-02T00:30:57.487Z,-1.20
2023-03-02T00:33:25.347Z,-1.00
2023-03-02T00:35:53.320Z,-0.88
2023-03-02T00:38:22.560Z,-0.91
2023-03-02T00:40:50.538Z,-0.79
2023-03-02T00:43:19.154Z,-0.65
2023-03-02T00:45:47.059Z,-0.82
2023-03-02T00:48:15.271Z,-0.86
2023-03-02T00:50:43.133Z,-0.97
2023-03-02T00:53:11.672Z,-0.95
2023-03-02T00:55:41.022Z,-0.93
2023-03-02T00:58:08.644Z,-0.96
2023-03-02T01:00:38.690Z,-1.13
2023-03-02T01:03:08.456Z,-1.27
2023-03-02T01:05:37.883Z,-1.33
2023-03-02T01:08:05.843Z,-1.37
2023-03-02T01:10:34.586Z,-1.36
2023-03-02T01:13:04.676Z,-1.46
2023-03-02T01:15:32.916Z,-1.60
2023-03-02T01:18:01.469Z,-1.56
2023-03-02T01:20:29.935Z,-1.54
2023-03-02T01:22:57.803Z,-1.50
2023-03-02T01:25:25.778Z,-1.57
2023-03-02T01:27:53.646Z,-1.54
2023-03-02T01:30:22.966Z,-1.58
2023-03-02T01:32:50.620Z,-1.67
2023-03-02T01:35:18.826Z,-1.67
2023-03-02T01:37:46.764Z,-1.75
2023-03-02T01:40:15.317Z,-1.75
2023-03-02T01:42:51.763Z,-1.77
2023-03-02T01:45:54.006Z,-1.68
2023-03-02T01:48:43.816Z,-1.56
2023-03-02T01:51:14.834Z,-1.46
2023-03-02T01:53:48.052Z,-1.37
2023-03-02T01:56:18.818Z,-1.36
2023-03-02T01:58:48.833Z,-1.51
2023-03-02T02:01:18.372Z,-1.56
2023-03-02T02:03:49.188Z,-1.61
2023-03-02T02:06:22.587Z,-1.58
2023-03-02T02:08:51.888Z,-1.79
2023-03-02T02:11:20.062Z,-1.77
2023-03-02T02:14:00.612Z,-1.87
2023-03-02T02:16:33.821Z,-1.81
2023-03-02T02:19:02.692Z,-1.71
2023-03-02T02:21:31.404Z,-1.77
2023-03-02T02:24:08.551Z,-1.68
2023-03-02T02:26:42.499Z,-1.75
2023-03-02T02:29:14.617Z,-1.91
2023-03-02T02:31:46.983Z,-1.82
2023-03-02T02:34:22.584Z,-1.75
2023-03-02T02:36:56.905Z,-1.57
2023-03-02T02:39:29.994Z,-1.70
2023-03-02T02:42:02.871Z,-1.84
2023-03-02T02:44:32.177Z,-1.82
2023-03-02T02:47:01.213Z,-1.87
2023-03-02T02:49:33.333Z,-1.91
2023-03-02T02:52:01.498Z,-1.98
2023-03-02T02:54:30.960Z,-2.10
2023-03-02T02:57:02.404Z,-2.12
2023-03-02T02:59:33.980Z,-2.21
2023-03-02T03:02:02.537Z,-2.33
2023-03-02T03:04:32.402Z,-2.43
2023-03-02T03:07:02.704Z,-2.52
2023-03-02T03:09:31.685Z,-2.52
2023-03-02T03:12:04.661Z,-2.57
2023-03-02T03:14:36.442Z,-2.54
2023-03-02T03:17:04.468Z,-2.43
2023-03-02T03:19:33.696Z,-2.32
2023-03-02T03:22:03.469Z,-2.22
2023-03-02T03:24:36.421Z,-2.10
2023-03-02T03:27:07.767Z,-2.22
2023-03-02T03:29:40.634Z,-2.21
2023-03-02T03:32:10.676Z,-2.23
2023-03-02T03:34:40.608Z,-2.25
2023-03-02T03:37:17.447Z,-2.22
2023-03-02T03:39:46.141Z,-2.19
2023-03-02T03:42:16.267Z,-2.35
2023-03-02T03:44:45.025Z,-2.38
2023-03-02T03:47:13.016Z,-2.42
2023-03-02T03:49:41.003Z,-2.45
2023-03-02T03:52:09.734Z,-2.45
2023-03-02T03:54:38.771Z,-2.36
2023-03-02T03:57:07.795Z,-2.29
2023-03-02T03:59:37.177Z,-2.29
2023-03-02T04:02:06.488Z,-2.30
2023-03-02T04:04:45.311Z,-2.38
2023-03-02T04:07:16.481Z,-2.30
2023-03-02T04:09:45.378Z,-2.46
2023-03-02T04:12:14.946Z,-2.59
2023-03-02T04:14:49.025Z,-2.67
2023-03-02T04:17:17.212Z,-2.74
2023-03-02T04:19:47.514Z,-2.25
2023-03-02T04:22:16.254Z,-1.91
2023-03-02T04:24:44.700Z,-2.03
2023-03-02T04:27:13.724Z,-1.99
2023-03-02T04:29:41.766Z,-2.21
2023-03-02T04:32:11.665Z,-2.30
2023-03-02T04:34:40.128Z,-2.35
2023-03-02T04:37:08.115Z,-2.33
2023-03-02T04:39:35.970Z,-2.36
2023-03-02T04:42:03.777Z,-2.50
2023-03-02T04:44:31.634Z,-2.53
2023-03-02T04:46:59.591Z,-2.49
2023-03-02T04:49:29.245Z,-2.39
2023-03-02T04:51:57.058Z,-2.49
2023-03-02T04:54:27.353Z,-2.43
2023-03-02T04:56:56.136Z,-2.42
2023-03-02T04:59:26.898Z,-2.29
2023-03-02T05:01:56.041Z,-2.32
2023-03-02T05:04:24.330Z,-2.42
2023-03-02T05:06:53.657Z,-2.45
2023-03-02T05:09:27.132Z,-2.57
2023-03-02T05:11:55.676Z,-2.64
2023-03-02T05:14:23.910Z,-2.57
2023-03-02T05:16:52.600Z,-2.46
2023-03-02T05:19:20.569Z,-2.49
2023-03-02T05:21:48.601Z,-2.56
2023-03-02T05:24:17.837Z,-2.42
2023-03-02T05:26:45.798Z,-2.19
2023-03-02T05:29:13.634Z,-2.32
2023-03-02T05:31:43.451Z,-2.26
2023-03-02T05:34:14.609Z,-2.33
2023-03-02T05:36:42.578Z,-2.59
2023-03-02T05:39:10.984Z,-2.54
2023-03-02T05:41:41.469Z,-2.63
2023-03-02T05:44:12.052Z,-2.74
2023-03-02T05:46:40.177Z,-2.81
2023-03-02T05:49:08.127Z,-2.83
2023-03-02T05:51:35.965Z,-2.77
2023-03-02T05:54:03.856Z,-2.79
2023-03-02T05:56:32.130Z,-2.69
2023-03-02T05:59:01.505Z,-2.48
2023-03-02T06:01:29.320Z,-2.30
2023-03-02T06:03:57.374Z,-2.12
2023-03-02T06:06:25.214Z,-2.06
2023-03-02T06:08:53.081Z,-2.01
2023-03-02T06:11:21.066Z,-1.92
2023-03-02T06:13:48.876Z,-1.87
2023-03-02T06:16:18.122Z,-1.67
2023-03-02T06:18:45.847Z,-1.74
2023-03-02T06:21:13.652Z,-1.53
2023-03-02T06:23:41.486Z,-1.57
2023-03-02T06:26:10.494Z,-1.84
2023-03-02T06:28:51.516Z,-1.89
2023-03-02T06:31:22.778Z,-2.12
2023-03-02T06:33:50.768Z,-2.19
2023-03-02T06:36:18.778Z,-2.25
2023-03-02T06:38:46.841Z,-2.28
2023-03-02T06:41:14.673Z,-2.15
2023-03-02T06:43:42.729Z,-1.78
2023-03-02T06:46:10.675Z,-1.23
2023-03-02T06:48:39.910Z,-0.69
2023-03-02T06:51:08.236Z,-0.20
2023-03-02T06:53:36.111Z,0.29
2023-03-02T06:56:03.991Z,0.70
2023-03-02T06:58:31.835Z,1.17
2023-03-02T07:00:59.801Z,1.39
2023-03-02T07:03:27.675Z,1.62
2023-03-02T07:05:56.971Z,2.06
2023-03-02T07:08:25.008Z,2.71
2023-03-02T07:10:52.919Z,3.14
2023-03-02T07:13:20.780Z,3.34
2023-03-02T07:15:48.675Z,3.96
2023-03-02T07:18:16.541Z,4.18
2023-03-02T07:20:44.393Z,4.73
2023-03-02T07:23:13.550Z,5.05
2023-03-02T07:25:41.388Z,5.60
2023-03-02T07:28:09.249Z,5.64
2023-03-02T07:30:37.145Z,6.23
2023-03-02T07:33:05.043Z,6.33
2023-03-02T07:35:32.947Z,6.73
2023-03-02T07:38:00.863Z,6.84
2023-03-02T07:40:30.015Z,7.01
2023-03-02T07:42:57.916Z,7.25
2023-03-02T07:45:26.295Z,7.56
2023-03-02T07:47:54.233Z,7.48
2023-03-02T07:50:22.121Z,8.20
2023-03-02T07:52:50.020Z,8.93
2023-03-02T07:55:17.887Z,9.85
2023-03-02T07:57:47.132Z,9.70
2023-03-02T08:00:16.363Z,10.38
2023-03-02T08:02:44.410Z,10.89
2023-03-02T08:05:13.586Z,10.85
2023-03-02T08:07:42.229Z,10.19
2023-03-02T08:10:11.706Z,9.70
2023-03-02T08:12:39.670Z,9.51
2023-03-02T08:15:10.506Z,9.79
2023-03-02T08:17:38.553Z,10.02
2023-03-02T08:20:08.248Z,10.52
2023-03-02T08:22:36.600Z,11.36
2023-03-02T08:25:05.338Z,10.67
2023-03-02T08:27:33.163Z,11.20
2023-03-02T08:30:01.028Z,11.52
2023-03-02T08:32:30.247Z,12.24
2023-03-02T08:34:57.955Z,11.72
2023-03-02T08:37:25.975Z,10.63
2023-03-02T08:39:53.843Z,10.87
2023-03-02T08:42:21.714Z,13.02
2023-03-02T08:44:49.593Z,13.19
2023-03-02T08:47:17.407Z,13.90
2023-03-02T08:49:48.186Z,14.24
2023-03-02T08:52:16.388Z,12.37
2023-03-02T08:54:44.292Z,10.99
2023-03-02T08:57:12.546Z,11.34
2023-03-02T08:59:40.438Z,11.85
2023-03-02T09:02:08.714Z,11.76
2023-03-02T09:04:36.659Z,10.91
2023-03-02T09:07:05.981Z,9.95
2023-03-02T09:09:33.639Z,11.14
2023-03-02T09:12:01.510Z,11.78
2023-03-02T09:14:29.343Z,12.23
2023-03-02T09:16:57.256Z,12.77
2023-03-02T09:19:25.225Z,13.47
2023-03-02T09:21:53.202Z,10.99
2023-03-02T09:24:22.344Z,9.84
2023-03-02T09:26:50.546Z,10.22
2023-03-02T09:29:18.404Z,10.87
2023-03-02T09:31:46.308Z,9.85
2023-03-02T09:34:14.165Z,9.98
2023-03-02T09:36:42.091Z,10.69
2023-03-02T09:39:12.417Z,11.22
2023-03-02T09:42:27.126Z,10.76
2023-03-02T09:45:33.524Z,11.66
2023-03-02T09:48:12.153Z,10.90
2023-03-02T09:50:42.523Z,10.94
2023-03-02T09:53:28.718Z,11.59
2023-03-02T09:56:00.315Z,11.62
2023-03-02T09:58:38.589Z,10.36
2023-03-02T10:01:16.486Z,9.87
2023-03-02T10:03:51.484Z,10.22
2023-03-02T10:06:19.615Z,10.38
2023-03-02T10:08:50.491Z,11.58
2023-03-02T10:11:27.856Z,11.20
2023-03-02T10:14:04.342Z,12.31
2023-03-02T10:16:37.894Z,13.36
2023-03-02T10:19:11.047Z,10.56
2023-03-02T10:21:41.192Z,11.43
2023-03-02T10:24:22.254Z,11.66
2023-03-02T10:26:54.237Z,12.30
2023-03-02T10:29:46.133Z,12.95
2023-03-02T10:32:21.209Z,11.42
2023-03-02T10:34:50.092Z,12.50
2023-03-02T10:37:21.672Z,12.26
2023-03-02T10:39:49.749Z,11.39
2023-03-02T10:42:21.317Z,10.40
2023-03-02T10:44:53.562Z,11.18
2023-03-02T10:47:23.728Z,12.26
2023-03-02T10:49:53.354Z,12.07
2023-03-02T10:52:23.013Z,10.56
2023-03-02T10:54:52.725Z,10.99
2023-03-02T10:57:35.379Z,11.41
2023-03-02T11:00:14.302Z,10.91
2023-03-02T11:02:50.204Z,11.27
2023-03-02T11:05:29.509Z,11.38
2023-03-02T11:07:57.989Z,9.71
2023-03-02T11:10:29.228Z,12.23
2023-03-02T11:12:57.328Z,11.81
2023-03-02T11:15:36.909Z,11.20
2023-03-02T11:18:08.876Z,11.68
2023-03-02T11:20:40.967Z,10.97
2023-03-02T11:23:19.590Z,11.31
2023-03-02T11:25:53.354Z,12.81
2023-03-02T11:28:35.993Z,11.69
2023-03-02T11:31:11.559Z,11.75
2023-03-02T11:33:44.235Z,11.99
2023-03-02T11:36:18.053Z,12.09
2023-03-02T11:38:51.489Z,11.72
2023-03-02T11:41:29.830Z,11.31
2023-03-02T11:44:00.819Z,11.59
2023-03-02T11:46:32.097Z,12.43
2023-03-02T11:49:04.744Z,12.64
2023-03-02T11:51:37.875Z,12.23
2023-03-02T11:54:19.621Z,11.25
2023-03-02T11:56:47.726Z,11.51
2023-03-02T11:59:20.736Z,12.37
2023-03-02T12:01:53.798Z,12.57
2023-03-02T12:04:33.387Z,13.02
2023-03-02T12:07:02.706Z,12.44
2023-03-02T12:09:33.257Z,12.20
2023-03-02T12:12:15.723Z,11.94
2023-03-02T12:14:44.395Z,12.58
2023-03-02T12:17:23.879Z,11.41
2023-03-02T12:19:53.982Z,11.22
2023-03-02T12:22:30.560Z,10.19
2023-03-02T12:25:05.904Z,11.12
2023-03-02T12:27:39.521Z,10.48
2023-03-02T12:30:25.036Z,11.10
2023-03-02T12:33:21.594Z,12.17
2023-03-02T12:35:59.278Z,11.62
2023-03-02T12:38:31.130Z,11.25
2023-03-02T12:41:22.185Z,11.14
2023-03-02T12:44:03.420Z,11.61
2023-03-02T12:46:33.401Z,11.21
2023-03-02T12:49:12.623Z,11.20
2023-03-02T12:51:54.123Z,10.43
2023-03-02T12:54:24.499Z,10.33
2023-03-02T12:57:06.221Z,11.20
2023-03-02T12:59:34.230Z,10.39
2023-03-02T13:02:16.614Z,10.01
2023-03-02T13:04:46.161Z,10.06
2023-03-02T13:07:19.292Z,11.27
2023-03-02T13:09:56.672Z,11.49
2023-03-02T13:12:27.848Z,11.17
2023-03-02T13:14:58.701Z,11.04
2023-03-02T13:17:29.517Z,10.90
2023-03-02T13:19:59.828Z,10.97
2023-03-02T13:22:28.218Z,11.25
2023-03-02T13:25:02.107Z,10.09
2023-03-02T13:27:31.043Z,10.71
2023-03-02T13:30:11.291Z,10.80
2023-03-02T13:32:42.057Z,10.60
2023-03-02T13:35:24.429Z,10.33
2023-03-02T13:37:59.877Z,10.52
2023-03-02T13:40:34.537Z,10.91
2023-03-02T13:43:02.554Z,10.28
2023-03-02T13:45:32.134Z,10.57
2023-03-02T13:48:02.277Z,10.93
2023-03-02T13:50:32.967Z,10.05
2023-03-02T13:53:06.991Z,9.89
2023-03-02T13:55:35.888Z,9.78
2023-03-02T13:58:04.036Z,9.77
2023-03-02T14:00:34.344Z,9.85
2023-03-02T14:03:02.959Z,10.29
2023-03-02T14:05:33.905Z,9.60
2023-03-02T14:08:02.903Z,9.70
2023-03-02T14:10:31.015Z,9.70
2023-03-02T14:13:03.046Z,9.62
2023-03-02T14:15:30.991Z,9.19
2023-03-02T14:17:59.226Z,9.38
2023-03-02T14:20:27.095Z,9.65
2023-03-02T14:22:56.325Z,9.58
2023-03-02T14:25:24.677Z,9.62
2023-03-02T14:27:52.535Z,9.75
2023-03-02T14:30:22.446Z,9.38
2023-03-02T14:32:51.142Z,9.50
2023-03-02T14:35:19.149Z,9.37
2023-03-02T14:37:49.604Z,9.19
2023-03-02T14:40:26.721Z,9.12
2023-03-02T14:42:54.848Z,9.12
2023-03-02T14:45:23.119Z,9.07
2023-03-02T14:47:51.072Z,8.99
2023-03-02T14:50:19.237Z,8.97
2023-03-02T14:52:50.633Z,9.03
2023-03-02T14:55:25.739Z,9.02
2023-03-02T14:57:56.598Z,8.93
2023-03-02T15:00:25.355Z,8.88
2023-03-02T15:02:53.304Z,8.78
2023-03-02T15:05:21.657Z,8.69
2023-03-02T15:07:50.373Z,8.78
2023-03-02T15:10:20.394Z,8.80
2023-03-02T15:12:49.573Z,8.86
2023-03-02T15:15:18.637Z,8.78
2023-03-02T15:17:46.515Z,8.73
2023-03-02T15:20:16.552Z,8.76
2023-03-02T15:22:44.856Z,8.79
2023-03-02T15:25:12.725Z,8.85
2023-03-02T15:27:41.546Z,8.82
2023-03-02T15:30:12.836Z,8.78
2023-03-02T15:32:40.829Z,8.78
2023-03-02T15:35:09.733Z,8.79
2023-03-02T15:37:37.546Z,8.79
2023-03-02T15:40:06.583Z,8.69
2023-03-02T15:42:34.525Z,8.66
2023-03-02T15:45:02.400Z,8.66
2023-03-02T15:47:33.506Z,8.65
2023-03-02T15:50:01.429Z,8.56
2023-03-02T15:52:29.340Z,8.61
2023-03-02T15:54:57.218Z,8.58
2023-03-02T15:57:25.049Z,8.54
2023-03-02T15:59:52.938Z,8.51
2023-03-02T16:02:20.829Z,8.49
2023-03-02T16:04:50.085Z,8.45
2023-03-02T16:07:17.918Z,8.41
2023-03-02T16:09:46.416Z,8.37
2023-03-02T16:12:14.369Z,8.35
2023-03-02T16:14:42.289Z,8.34
2023-03-02T16:17:10.172Z,8.28
2023-03-02T16:19:38.126Z,8.20
2023-03-02T16:22:07.389Z,8.18
2023-03-02T16:24:35.229Z,8.10
2023-03-02T16:27:03.129Z,8.13
2023-03-02T16:29:31.855Z,8.06
2023-03-02T16:31:59.839Z,8.04
2023-03-02T16:34:27.799Z,7.93
2023-03-02T16:36:55.657Z,7.86
2023-03-02T16:39:24.862Z,7.84
2023-03-02T16:41:52.921Z,7.80
2023-03-02T16:44:21.351Z,7.75
2023-03-02T16:46:49.457Z,7.70
2023-03-02T16:49:17.340Z,7.59
2023-03-02T16:51:45.242Z,7.49
2023-03-02T16:54:17.019Z,7.45
2023-03-02T16:56:47.392Z,7.41
2023-03-02T16:59:15.585Z,7.16
2023-03-02T17:01:43.527Z,7.21
2023-03-02T17:04:11.461Z,7.05
2023-03-02T17:06:41.695Z,7.00
2023-03-02T17:09:10.538Z,6.83
2023-03-02T17:11:39.882Z,6.60
2023-03-02T17:14:09.802Z,6.56
2023-03-02T17:16:37.707Z,6.57
2023-03-02T17:19:05.591Z,6.50
2023-03-02T17:21:33.411Z,6.43
2023-03-02T17:24:01.253Z,6.60
2023-03-02T17:26:29.149Z,6.57
2023-03-02T17:28:57.000Z,6.40
2023-03-02T17:31:26.228Z,6.19
2023-03-02T17:33:54.219Z,6.09
2023-03-02T17:36:22.092Z,6.23
2023-03-02T17:38:50.033Z,6.18
2023-03-02T17:41:17.887Z,6.19
2023-03-02T17:43:45.912Z,6.11
2023-03-02T17:46:16.475Z,6.19
2023-03-02T17:48:45.762Z,6.23
2023-03-02T17:51:14.916Z,6.21
2023-03-02T17:53:43.114Z,6.21
2023-03-02T17:56:11.800Z,5.98
2023-03-02T17:58:45.006Z,5.99
2023-03-02T18:01:15.670Z,6.02
2023-03-02T18:03:46.025Z,5.95
2023-03-02T18:06:14.540Z,6.03
2023-03-02T18:08:42.445Z,5.89
2023-03-02T18:11:10.587Z,5.85
2023-03-02T18:13:38.683Z,5.75
2023-03-02T18:16:07.664Z,5.68
2023-03-02T18:18:35.598Z,5.67
2023-03-02T18:21:05.291Z,5.58
2023-03-02T18:23:33.940Z,5.55
2023-03-02T18:26:01.832Z,5.33
2023-03-02T18:28:29.788Z,5.34
2023-03-02T18:30:57.977Z,5.34
2023-03-02T18:33:25.886Z,5.29
2023-03-02T18:35:53.902Z,5.41
2023-03-02T18:38:23.093Z,5.44
2023-03-02T18:40:51.009Z,5.34
2023-03-02T18:43:18.927Z,5.29
2023-03-02T18:45:46.865Z,5.15
2023-03-02T18:48:14.728Z,5.06
2023-03-02T18:50:43.670Z,4.95
2023-03-02T18:53:12.919Z,5.03
2023-03-02T18:55:42.115Z,5.05
2023-03-02T18:58:18.139Z,4.95
2023-03-02T19:00:46.802Z,4.86
2023-03-02T19:03:16.024Z,4.86
2023-03-02T19:05:44.760Z,4.82
2023-03-02T19:08:13.149Z,4.76
2023-03-02T19:10:42.480Z,4.75
2023-03-02T19:13:11.799Z,4.66
2023-03-02T19:15:40.621Z,4.52
2023-03-02T19:18:10.494Z,4.40
2023-03-02T19:20:38.681Z,4.33
2023-03-02T19:23:06.496Z,4.21
2023-03-02T19:25:34.347Z,4.14
2023-03-02T19:28:04.496Z,4.08
2023-03-02T19:30:34.061Z,4.00
2023-03-02T19:33:03.521Z,4.06
2023-03-02T19:35:31.591Z,3.94
2023-03-02T19:37:59.507Z,3.94
2023-03-02T19:40:30.211Z,3.87
2023-03-02T19:42:58.247Z,3.83
2023-03-02T19:45:30.169Z,3.85
2023-03-02T19:47:58.794Z,3.70
2023-03-02T19:50:27.772Z,3.63
2023-03-02T19:52:56.067Z,3.69
2023-03-02T19:55:25.216Z,3.55
2023-03-02T19:57:59.832Z,3.40
2023-03-02T20:00:31.435Z,3.32
2023-03-02T20:02:59.826Z,3.31
2023-03-02T20:05:28.589Z,3.34
2023-03-02T20:07:56.772Z,3.21
2023-03-02T20:10:31.392Z,3.26
2023-03-02T20:13:00.701Z,3.22
2023-03-02T20:15:32.062Z,3.22
2023-03-02T20:18:02.567Z,3.24
2023-03-02T20:20:31.467Z,3.24
2023-03-02T20:23:00.067Z,3.22
2023-03-02T20:25:28.915Z,3.18
2023-03-02T20:27:58.047Z,3.25
2023-03-02T20:30:29.842Z,3.11
2023-03-02T20:33:00.149Z,3.05
2023-03-02T20:35:30.404Z,2.95
2023-03-02T20:38:01.025Z,2.87
2023-03-02T20:40:29.577Z,2.80
2023-03-02T20:42:57.511Z,2.80
2023-03-02T20:45:25.509Z,2.80
2023-03-02T20:47:53.636Z,2.81
2023-03-02T20:50:27.206Z,2.73
2023-03-02T20:52:55.248Z,2.58
2023-03-02T20:55:23.161Z,2.46
2023-03-02T20:57:51.186Z,2.39
2023-03-02T21:00:22.105Z,2.30
2023-03-02T21:02:50.868Z,2.34
2023-03-02T21:05:20.438Z,2.36
2023-03-02T21:07:50.621Z,2.40
2023-03-02T21:10:20.833Z,2.39
2023-03-02T21:12:49.322Z,2.36
2023-03-02T21:15:21.395Z,2.37
2023-03-02T21:17:49.399Z,2.26
2023-03-02T21:20:18.368Z,2.11
2023-03-02T21:22:46.830Z,2.02
2023-03-02T21:25:17.043Z,1.83
2023-03-02T21:27:45.602Z,1.67
2023-03-02T21:30:19.784Z,1.64
2023-03-02T21:32:48.273Z,1.71
2023-03-02T21:35:19.787Z,1.75
2023-03-02T21:37:49.870Z,1.79
2023-03-02T21:40:23.078Z,1.78
2023-03-02T21:42:51.005Z,1.70
2023-03-02T21:45:19.499Z,1.78
2023-03-02T21:47:47.860Z,1.81
2023-03-02T21:50:18.519Z,1.77
2023-03-02T21:52:46.403Z,1.82
2023-03-02T21:55:14.707Z,1.70
2023-03-02T21:57:44.434Z,1.55
2023-03-02T22:00:21.150Z,1.46
2023-03-02T22:02:49.253Z,1.31
2023-03-02T22:05:17.585Z,1.15
2023-03-02T22:07:45.911Z,0.99
2023-03-02T22:10:24.709Z,0.93
2023-03-02T22:12:58.320Z,0.86
2023-03-02T22:15:27.826Z,0.82
2023-03-02T22:17:56.597Z,0.88
2023-03-02T22:20:24.689Z,0.69
2023-03-02T22:22:55.087Z,0.55
2023-03-02T22:25:23.076Z,0.57
2023-03-02T22:27:51.594Z,0.41
2023-03-02T22:30:23.308Z,0.29
2023-03-02T22:32:51.276Z,0.29
2023-03-02T22:35:25.292Z,0.59
2023-03-02T22:38:00.489Z,0.73
2023-03-02T22:40:31.355Z,0.75
2023-03-02T22:43:11.269Z,0.79
2023-03-02T22:45:41.772Z,0.69
2023-03-02T22:48:15.735Z,0.52
2023-03-02T22:50:45.579Z,0.35
2023-03-02T22:53:29.844Z,0.25
2023-03-02T22:56:00.051Z,0.18
2023-03-02T22:58:45.454Z,0.25
2023-03-02T23:01:25.526Z,0.32
2023-03-02T23:03:54.789Z,0.37
2023-03-02T23:06:31.701Z,0.17
2023-03-02T23:09:01.794Z,0.10
2023-03-02T23:11:32.813Z,0.06
2023-03-02T23:14:02.773Z,0.10
2023-03-02T23:16:36.739Z,0.18
2023-03-02T23:19:05.294Z,0.25
2023-03-02T23:21:39.366Z,0.34
2023-03-02T23:24:08.520Z,0.31
2023-03-02T23:26:36.796Z,0.13
2023-03-02T23:29:05.073Z,0.06
2023-03-02T23:31:34.484Z,0.28
2023-03-02T23:34:02.317Z,0.29
2023-03-02T23:36:31.893Z,0.22
2023-03-02T23:38:59.827Z,0.34
2023-03-02T23:41:27.840Z,0.38
2023-03-02T23:43:55.689Z,0.25
2023-03-02T23:46:23.582Z,0.13
2023-03-02T23:48:53.097Z,-0.02
2023-03-02T23:51:20.979Z,-0.17
2023-03-02T23:53:48.889Z,-0.28
2023-03-02T23:56:16.751Z,-0.37
2023-03-02T23:58:44.576Z,-0.53
